Time;durP1;ratioP1;P1;durP2;ratioP2;P2;SDS_P1;SDS_P2;PMS_P1;PMS_P2;Temp;Humidity;BMP_temperature;BMP_pressure;BME280_temperature;BME280_humidity;BME280_pressure;Samples;Min_cycle;Max_cycle;Signal;HPM_P1;HPM_P2
2023/04/25 00:02:01;;;;;;;2.10;1.63;;;;;;;;;;5012659;28;20026;-78
2023/04/25 00:04:27;;;;;;;3.00;1.80;;;;;;;;;;5015106;28;20022;-78
2023/04/25 00:06:55;;;;;;;2.58;1.70;;;;;;;;;;5012823;28;20079;-77
2023/04/25 00:09:21;;;;;;;2.15;1.73;;;;;;;;;;5015032;28;20018;-78
2023/04/25 00:11:46;;;;;;;3.92;1.75;;;;;;;;;;5014788;28;20038;-77
2023/04/25 00:14:11;;;;;;;4.15;1.58;;;;;;;;;;5014510;28;20032;-79
2023/04/25 00:16:37;;;;;;;2.53;1.80;;;;;;;;;;5014927;28;20537;-78
2023/04/25 00:19:02;;;;;;;2.05;1.80;;;;;;;;;;5013111;28;20639;-76
2023/04/25 00:21:28;;;;;;;3.80;1.98;;;;;;;;;;5012943;28;20030;-77
2023/04/25 00:23:54;;;;;;;1.85;1.65;;;;;;;;;;5014800;28;20022;-79
2023/04/25 00:26:20;;;;;;;2.65;1.52;;;;;;;;;;5014842;28;20026;-78
2023/04/25 00:28:46;;;;;;;1.95;1.58;;;;;;;;;;5014843;28;20524;-77
2023/04/25 00:31:12;;;;;;;3.30;1.98;;;;;;;;;;5014466;28;20025;-78
2023/04/25 00:33:37;;;;;;;2.88;1.90;;;;;;;;;;5015150;28;20477;-77
2023/04/25 00:36:02;;;;;;;3.53;1.77;;;;;;;;;;5018823;28;20056;-76
2023/04/25 00:38:28;;;;;;;2.60;1.70;;;;;;;;;;5021178;28;20033;-78
2023/04/25 00:40:55;;;;;;;2.55;1.70;;;;;;;;;;5021690;28;20018;-77
2023/04/25 00:43:20;;;;;;;4.63;1.88;;;;;;;;;;5021609;28;20073;-76
2023/04/25 00:45:47;;;;;;;4.70;1.80;;;;;;;;;;5021538;28;20026;-77
2023/04/25 00:48:14;;;;;;;2.63;1.70;;;;;;;;;;5022113;28;20033;-78
2023/04/25 00:50:40;;;;;;;2.95;1.75;;;;;;;;;;5022666;28;20384;-78
2023/04/25 00:53:06;;;;;;;3.13;1.95;;;;;;;;;;5021129;28;20121;-78
2023/04/25 00:55:32;;;;;;;2.42;1.85;;;;;;;;;;5020857;28;20029;-78
2023/04/25 00:57:58;;;;;;;2.65;1.98;;;;;;;;;;5022909;28;20053;-78
2023/04/25 01:00:23;;;;;;;3.40;2.10;;;;;;;;;;5021968;28;20454;-77
2023/04/25 01:02:49;;;;;;;2.58;2.05;;;;;;;;;;5022142;28;20030;-78
2023/04/25 01:05:15;;;;;;;4.45;2.08;;;;;;;;;;5022182;28;20022;-77
2023/04/25 01:07:40;;;;;;;2.95;1.90;;;;;;;;;;5021745;28;20523;-78
2023/04/25 01:10:06;;;;;;;3.83;2.20;;;;;;;;;;5020798;28;20484;-78
2023/04/25 01:12:32;;;;;;;4.57;2.15;;;;;;;;;;5020808;28;20040;-77
2023/04/25 01:14:57;;;;;;;7.00;2.40;;;;;;;;;;5020426;28;20129;-77
2023/04/25 01:17:23;;;;;;;3.17;2.10;;;;;;;;;;5018871;28;20060;-76
2023/04/25 01:19:49;;;;;;;3.83;2.17;;;;;;;;;;5019258;28;20049;-78
2023/04/25 01:22:14;;;;;;;4.40;2.20;;;;;;;;;;5020511;28;20026;-76
2023/04/25 01:24:41;;;;;;;4.75;2.25;;;;;;;;;;5020954;28;20050;-77
2023/04/25 01:27:07;;;;;;;3.95;2.33;;;;;;;;;;5020538;28;20037;-77
2023/04/25 01:29:32;;;;;;;3.60;2.10;;;;;;;;;;5019943;28;20481;-79
2023/04/25 01:31:59;;;;;;;5.22;2.50;;;;;;;;;;5020458;28;20540;-79
2023/04/25 01:34:24;;;;;;;5.55;2.40;;;;;;;;;;5022069;28;20369;-77
2023/04/25 01:36:50;;;;;;;5.10;2.47;;;;;;;;;;5021325;28;20030;-79
2023/04/25 01:39:16;;;;;;;3.35;2.30;;;;;;;;;;5019164;28;20026;-78
2023/04/25 01:41:42;;;;;;;3.88;2.28;;;;;;;;;;5021011;28;20053;-77
2023/04/25 01:44:07;;;;;;;6.25;2.70;;;;;;;;;;5020188;28;20108;-78
2023/04/25 01:46:33;;;;;;;4.05;2.13;;;;;;;;;;5018873;28;20033;-78
2023/04/25 01:48:59;;;;;;;3.20;2.30;;;;;;;;;;5015393;28;20119;-77
2023/04/25 01:51:24;;;;;;;4.47;2.47;;;;;;;;;;5016450;28;20437;-78
2023/04/25 01:53:50;;;;;;;4.40;2.53;;;;;;;;;;5017854;28;20030;-77
2023/04/25 01:56:15;;;;;;;6.85;2.42;;;;;;;;;;5017961;28;20473;-78
2023/04/25 01:58:40;;;;;;;4.88;2.25;;;;;;;;;;5017085;28;20033;-77
2023/04/25 02:01:06;;;;;;;5.70;2.60;;;;;;;;;;5017068;28;20032;-77
2023/04/25 02:03:31;;;;;;;3.47;2.37;;;;;;;;;;5016807;28;20108;-78
2023/04/25 02:05:57;;;;;;;3.42;2.20;;;;;;;;;;5017314;28;20291;-78
2023/04/25 02:08:22;;;;;;;4.07;2.20;;;;;;;;;;5017485;28;20026;-78
2023/04/25 02:10:47;;;;;;;4.25;2.50;;;;;;;;;;5016868;28;20056;-78
2023/04/25 02:13:12;;;;;;;4.50;2.63;;;;;;;;;;5016478;28;20021;-77
2023/04/25 02:15:38;;;;;;;4.37;2.20;;;;;;;;;;5016144;28;20393;-78
2023/04/25 02:18:03;;;;;;;4.60;2.58;;;;;;;;;;5016349;28;20295;-77
2023/04/25 02:20:30;;;;;;;5.75;2.88;;;;;;;;;;5016508;28;20041;-78
2023/04/25 02:22:55;;;;;;;4.90;2.53;;;;;;;;;;5016440;28;20029;-78
2023/04/25 02:25:21;;;;;;;4.65;2.13;;;;;;;;;;5016747;28;20370;-77
2023/04/25 02:27:47;;;;;;;6.22;2.45;;;;;;;;;;5016384;28;20144;-77
2023/04/25 02:30:13;;;;;;;3.58;2.25;;;;;;;;;;5016655;28;20080;-76
2023/04/25 02:32:39;;;;;;;4.60;2.40;;;;;;;;;;5015655;28;20026;-78
2023/04/25 02:35:05;;;;;;;3.55;2.25;;;;;;;;;;5016688;28;20068;-78
2023/04/25 02:37:31;;;;;;;6.35;2.70;;;;;;;;;;5015487;28;20386;-77
2023/04/25 02:39:56;;;;;;;4.45;2.50;;;;;;;;;;5016367;28;20029;-78
2023/04/25 02:42:22;;;;;;;4.93;2.50;;;;;;;;;;5016242;28;20026;-78
2023/04/25 02:44:47;;;;;;;5.75;3.00;;;;;;;;;;5016382;28;20030;-78
2023/04/25 02:47:12;;;;;;;4.05;2.53;;;;;;;;;;5014237;28;20028;-77
2023/04/25 02:49:37;;;;;;;4.90;2.63;;;;;;;;;;5015494;28;20030;-75
2023/04/25 02:52:03;;;;;;;6.10;2.90;;;;;;;;;;5014418;28;20026;-78
2023/04/25 02:54:28;;;;;;;6.03;2.90;;;;;;;;;;5015049;28;20108;-78
2023/04/25 02:56:53;;;;;;;7.65;2.90;;;;;;;;;;5013810;28;20504;-77
2023/04/25 02:59:19;;;;;;;5.10;2.70;;;;;;;;;;5013532;28;20040;-78
2023/04/25 03:01:45;;;;;;;9.13;2.75;;;;;;;;;;5015019;28;20347;-77
2023/04/25 03:04:10;;;;;;;5.75;2.63;;;;;;;;;;5015425;28;20021;-77
2023/04/25 03:06:35;;;;;;;4.03;2.70;;;;;;;;;;5015403;28;20477;-77
2023/04/25 03:09:00;;;;;;;4.47;2.65;;;;;;;;;;5015659;28;20758;-78
2023/04/25 03:11:26;;;;;;;8.50;2.83;;;;;;;;;;5015750;28;20034;-79
2023/04/25 03:13:51;;;;;;;4.15;2.78;;;;;;;;;;5013371;28;20272;-76
2023/04/25 03:16:16;;;;;;;5.10;2.67;;;;;;;;;;5014419;28;20026;-78
2023/04/25 03:18:41;;;;;;;6.25;2.80;;;;;;;;;;5015396;28;20274;-78
2023/04/25 03:21:07;;;;;;;5.10;2.77;;;;;;;;;;5015412;28;20044;-78
2023/04/25 03:23:32;;;;;;;5.38;2.78;;;;;;;;;;5015570;28;20345;-78
2023/04/25 03:25:57;;;;;;;4.70;2.83;;;;;;;;;;5015459;28;20033;-78
2023/04/25 03:28:22;;;;;;;5.35;3.05;;;;;;;;;;5015678;28;20068;-78
2023/04/25 03:30:47;;;;;;;6.70;3.10;;;;;;;;;;5015700;28;20021;-78
2023/04/25 03:33:13;;;;;;;7.50;3.07;;;;;;;;;;5013889;28;20294;-78
2023/04/25 03:35:38;;;;;;;4.67;3.00;;;;;;;;;;5014192;28;20350;-77
2023/04/25 03:38:03;;;;;;;6.43;2.80;;;;;;;;;;5015378;28;20353;-77
2023/04/25 03:40:28;;;;;;;6.43;2.80;;;;;;;;;;5013499;28;20334;-77
2023/04/25 03:42:53;;;;;;;5.30;2.67;;;;;;;;;;5013176;28;20305;-78
2023/04/25 03:45:19;;;;;;;6.07;2.97;;;;;;;;;;5013058;28;20030;-78
2023/04/25 03:47:44;;;;;;;5.32;2.80;;;;;;;;;;5014321;28;20262;-78
2023/04/25 03:50:10;;;;;;;11.05;3.25;;;;;;;;;;5014832;28;20121;-78
2023/04/25 03:52:35;;;;;;;6.05;3.03;;;;;;;;;;5013781;28;20104;-78
2023/04/25 03:55:00;;;;;;;7.10;3.67;;;;;;;;;;5015081;28;20412;-78
2023/04/25 03:57:25;;;;;;;7.63;2.88;;;;;;;;;;5014461;28;20030;-77
2023/04/25 03:59:51;;;;;;;5.57;2.83;;;;;;;;;;5014709;28;20022;-77
2023/04/25 04:02:17;;;;;;;4.53;2.80;;;;;;;;;;5012944;28;20260;-78
2023/04/25 04:04:43;;;;;;;6.10;3.05;;;;;;;;;;5014266;28;20255;-78
2023/04/25 04:07:10;;;;;;;8.25;3.70;;;;;;;;;;5014596;28;20029;-78
2023/04/25 04:09:35;;;;;;;10.82;3.20;;;;;;;;;;5012835;28;20021;-78
2023/04/25 04:12:01;;;;;;;7.85;3.70;;;;;;;;;;5014163;28;20385;-77
2023/04/25 04:14:26;;;;;;;6.68;3.28;;;;;;;;;;5014145;28;20030;-78
2023/04/25 04:16:52;;;;;;;8.83;3.60;;;;;;;;;;5013272;28;20081;-78
2023/04/25 04:19:17;;;;;;;7.05;3.30;;;;;;;;;;5012867;28;20275;-78
2023/04/25 04:21:42;;;;;;;7.03;3.35;;;;;;;;;;5012880;28;20021;-78
2023/04/25 04:24:08;;;;;;;6.67;3.33;;;;;;;;;;5013051;28;20029;-78
2023/04/25 04:26:34;;;;;;;6.50;3.30;;;;;;;;;;5012758;28;20343;-78
2023/04/25 04:29:00;;;;;;;5.95;3.00;;;;;;;;;;5014139;28;20251;-78
2023/04/25 04:31:25;;;;;;;7.50;4.78;;;;;;;;;;5014097;28;20021;-78
2023/04/25 04:33:51;;;;;;;9.35;4.90;;;;;;;;;;5012907;28;20076;-78
2023/04/25 04:36:19;;;;;;;9.50;4.80;;;;;;;;;;5014450;28;20116;-78
2023/04/25 04:38:45;;;;;;;7.00;3.78;;;;;;;;;;5012952;28;20022;-78
2023/04/25 04:41:10;;;;;;;5.60;3.20;;;;;;;;;;5013475;28;20041;-77
2023/04/25 04:43:36;;;;;;;7.05;3.60;;;;;;;;;;5013084;28;20029;-78
2023/04/25 04:46:03;;;;;;;9.30;3.85;;;;;;;;;;5013599;28;20022;-78
2023/04/25 04:48:28;;;;;;;7.38;3.30;;;;;;;;;;5013156;28;20037;-78
2023/04/25 04:50:53;;;;;;;9.15;3.65;;;;;;;;;;5013789;28;20022;-78
2023/04/25 04:53:19;;;;;;;8.83;3.37;;;;;;;;;;5012624;28;20084;-77
2023/04/25 04:55:44;;;;;;;7.93;3.58;;;;;;;;;;5013145;28;20263;-78
2023/04/25 04:58:09;;;;;;;8.25;3.45;;;;;;;;;;5013426;28;20025;-78
2023/04/25 05:00:34;;;;;;;5.97;2.95;;;;;;;;;;5013648;28;20392;-78
2023/04/25 05:03:00;;;;;;;8.05;3.40;;;;;;;;;;5013453;28;20025;-78
2023/04/25 05:05:25;;;;;;;6.15;3.03;;;;;;;;;;5014317;28;20030;-79
2023/04/25 05:07:51;;;;;;;5.93;3.25;;;;;;;;;;5014486;28;20026;-78
2023/04/25 05:10:18;;;;;;;6.63;3.30;;;;;;;;;;5013803;28;20040;-78
2023/04/25 05:12:44;;;;;;;8.65;3.22;;;;;;;;;;5014197;28;20511;-78
2023/04/25 05:15:09;;;;;;;5.97;3.65;;;;;;;;;;5013911;28;20115;-78
2023/04/25 05:17:35;;;;;;;12.50;3.40;;;;;;;;;;5012571;28;20029;-78
2023/04/25 05:20:00;;;;;;;8.70;3.38;;;;;;;;;;5014408;28;20030;-79
2023/04/25 05:22:26;;;;;;;6.47;3.40;;;;;;;;;;5017611;28;20090;-78
2023/04/25 05:24:51;;;;;;;6.35;3.22;;;;;;;;;;5019841;28;20083;-78
2023/04/25 05:27:17;;;;;;;9.50;3.28;;;;;;;;;;5019344;28;20080;-78
2023/04/25 05:29:42;;;;;;;7.38;3.45;;;;;;;;;;5017124;28;20100;-77
2023/04/25 05:32:09;;;;;;;5.10;3.15;;;;;;;;;;5018945;28;20477;-78
2023/04/25 05:34:34;;;;;;;4.10;2.95;;;;;;;;;;5018103;28;20078;-79
2023/04/25 05:37:00;;;;;;;5.45;2.85;;;;;;;;;;5017247;28;20120;-77
2023/04/25 05:39:26;;;;;;;6.53;3.00;;;;;;;;;;5017162;28;20076;-77
2023/04/25 05:41:51;;;;;;;7.55;3.10;;;;;;;;;;5018343;28;20026;-78
2023/04/25 05:44:16;;;;;;;7.47;3.17;;;;;;;;;;5019470;28;20036;-78
2023/04/25 05:46:41;;;;;;;5.03;3.17;;;;;;;;;;5020494;28;20022;-79
2023/04/25 05:49:07;;;;;;;8.13;3.28;;;;;;;;;;5018580;28;20542;-79
2023/04/25 05:51:32;;;;;;;7.90;3.00;;;;;;;;;;5018723;28;20037;-78
2023/04/25 05:53:57;;;;;;;9.60;3.10;;;;;;;;;;5018864;28;20267;-79
2023/04/25 05:56:22;;;;;;;9.57;2.83;;;;;;;;;;5018698;28;20255;-78
2023/04/25 05:58:48;;;;;;;5.93;2.90;;;;;;;;;;5018890;28;20283;-78
2023/04/25 06:01:13;;;;;;;5.68;2.83;;;;;;;;;;5016950;28;20064;-78
2023/04/25 06:03:39;;;;;;;7.43;2.88;;;;;;;;;;5017308;28;20049;-77
2023/04/25 06:06:04;;;;;;;3.87;2.60;;;;;;;;;;5016799;28;20029;-78
2023/04/25 06:08:29;;;;;;;7.45;2.88;;;;;;;;;;5017924;28;20263;-78
2023/04/25 06:10:54;;;;;;;5.13;2.95;;;;;;;;;;5018299;28;20056;-78
2023/04/25 06:13:21;;;;;;;5.33;3.00;;;;;;;;;;5019520;28;20044;-79
2023/04/25 06:15:46;;;;;;;7.50;3.17;;;;;;;;;;5017542;28;20267;-79
2023/04/25 06:18:11;;;;;;;6.57;3.20;;;;;;;;;;5018217;28;20029;-77
2023/04/25 06:20:36;;;;;;;4.80;2.80;;;;;;;;;;5017484;28;20283;-79
2023/04/25 06:23:02;;;;;;;4.20;2.60;;;;;;;;;;5017475;28;20263;-77
2023/04/25 06:25:27;;;;;;;5.90;3.17;;;;;;;;;;5016080;28;20192;-79
2023/04/25 06:27:52;;;;;;;8.05;3.42;;;;;;;;;;5016302;28;20121;-79
2023/04/25 06:30:22;;;;;;;5.63;3.60;;;;;;;;;;5017412;28;20034;-78
2023/04/25 06:32:47;;;;;;;10.52;3.03;;;;;;;;;;5016994;28;20264;-78
2023/04/25 06:35:13;;;;;;;9.23;3.40;;;;;;;;;;5015771;28;20481;-79
2023/04/25 06:37:38;;;;;;;7.20;3.50;;;;;;;;;;5015808;28;20026;-78
2023/04/25 06:40:04;;;;;;;8.15;2.80;;;;;;;;;;5017897;28;20393;-78
2023/04/25 06:42:29;;;;;;;4.97;2.90;;;;;;;;;;5017599;28;20061;-78
2023/04/25 06:44:54;;;;;;;9.57;3.43;;;;;;;;;;5016014;28;20021;-78
2023/04/25 06:47:19;;;;;;;5.63;3.17;;;;;;;;;;5017040;28;20302;-78
2023/04/25 06:49:45;;;;;;;6.30;3.20;;;;;;;;;;5016210;28;20046;-77
2023/04/25 06:52:10;;;;;;;7.47;2.87;;;;;;;;;;5015210;28;20055;-77
2023/04/25 06:54:35;;;;;;;8.68;3.10;;;;;;;;;;5015772;28;20295;-77
2023/04/25 06:57:01;;;;;;;6.97;3.08;;;;;;;;;;5015253;28;20030;-79
2023/04/25 06:59:26;;;;;;;6.18;3.05;;;;;;;;;;5018528;28;20026;-79
2023/04/25 07:01:51;;;;;;;5.20;2.50;;;;;;;;;;5017919;28;20385;-79
2023/04/25 07:04:17;;;;;;;8.70;2.70;;;;;;;;;;5016768;28;20028;-77
2023/04/25 07:06:42;;;;;;;6.30;2.80;;;;;;;;;;5014041;28;20261;-78
2023/04/25 07:09:09;;;;;;;7.28;3.05;;;;;;;;;;5015998;28;20030;-78
2023/04/25 07:11:35;;;;;;;6.72;2.92;;;;;;;;;;5021133;28;20026;-77
2023/04/25 07:14:00;;;;;;;8.77;3.03;;;;;;;;;;5014753;28;20052;-76
2023/04/25 07:16:25;;;;;;;6.35;2.85;;;;;;;;;;5013326;28;20515;-77
2023/04/25 07:18:51;;;;;;;6.23;3.00;;;;;;;;;;5015675;28;20049;-77
2023/04/25 07:21:16;;;;;;;8.18;3.30;;;;;;;;;;5014162;28;20318;-77
2023/04/25 07:23:41;;;;;;;5.07;2.73;;;;;;;;;;5014873;28;20025;-76
2023/04/25 07:26:06;;;;;;;5.33;3.00;;;;;;;;;;5014802;28;20255;-76
2023/04/25 07:28:32;;;;;;;5.63;2.45;;;;;;;;;;5012900;28;20259;-75
2023/04/25 07:30:58;;;;;;;4.93;2.33;;;;;;;;;;5014435;28;20565;-76
2023/04/25 07:33:23;;;;;;;3.97;2.47;;;;;;;;;;5014031;28;20616;-76
2023/04/25 07:35:48;;;;;;;6.50;2.85;;;;;;;;;;5014206;28;20087;-76
2023/04/25 07:38:13;;;;;;;7.07;2.83;;;;;;;;;;5013928;28;20057;-76
2023/04/25 07:40:38;;;;;;;4.23;2.60;;;;;;;;;;5013853;28;20314;-76
2023/04/25 07:43:04;;;;;;;4.87;2.70;;;;;;;;;;5013830;28;20274;-76
2023/04/25 07:45:29;;;;;;;7.27;2.80;;;;;;;;;;5012831;28;20256;-76
2023/04/25 07:47:54;;;;;;;4.70;2.50;;;;;;;;;;5014147;28;20262;-76
2023/04/25 07:50:19;;;;;;;6.90;3.03;;;;;;;;;;5012543;28;20255;-76
2023/04/25 07:52:45;;;;;;;3.78;2.70;;;;;;;;;;5014071;28;20112;-77
2023/04/25 07:55:10;;;;;;;9.93;2.75;;;;;;;;;;5013489;28;20504;-74
2023/04/25 07:57:35;;;;;;;5.13;2.63;;;;;;;;;;5012439;28;20022;-76
2023/04/25 08:00:00;;;;;;;7.77;2.10;;;;;;;;;;5013605;28;20041;-75
2023/04/25 08:02:28;;;;;;;4.13;2.50;;;;;;;;;;5013843;28;20482;-77
2023/04/25 08:04:53;;;;;;;5.22;2.45;;;;;;;;;;5012281;28;20028;-75
2023/04/25 08:07:18;;;;;;;5.75;2.15;;;;;;;;;;5012255;28;20026;-75
2023/04/25 08:09:44;;;;;;;3.77;2.20;;;;;;;;;;5013852;28;20014;-75
2023/04/25 08:12:09;;;;;;;5.13;2.13;;;;;;;;;;5013589;28;20347;-75
2023/04/25 08:14:39;;;;;;;6.57;2.38;;;;;;;;;;5013494;28;20022;-74
2023/04/25 08:17:05;;;;;;;4.13;2.38;;;;;;;;;;5012282;28;20080;-73
2023/04/25 08:19:30;;;;;;;3.28;1.80;;;;;;;;;;5013416;28;20026;-74
2023/04/25 08:21:56;;;;;;;4.95;2.40;;;;;;;;;;5012360;28;20080;-74
2023/04/25 08:24:21;;;;;;;4.20;1.92;;;;;;;;;;5013529;28;20436;-74
2023/04/25 08:26:47;;;;;;;5.55;2.20;;;;;;;;;;5012346;28;20024;-74
2023/04/25 08:29:12;;;;;;;3.92;1.90;;;;;;;;;;5013321;28;20053;-73
2023/04/25 08:31:37;;;;;;;2.95;1.70;;;;;;;;;;5013205;28;20400;-74
2023/04/25 08:34:02;;;;;;;3.53;1.90;;;;;;;;;;5013571;28;20076;-74
2023/04/25 08:36:28;;;;;;;4.40;2.10;;;;;;;;;;5013150;28;20029;-74
2023/04/25 08:38:53;;;;;;;3.28;1.80;;;;;;;;;;5012325;28;20267;-74
2023/04/25 08:41:20;;;;;;;3.80;2.00;;;;;;;;;;5013262;28;20062;-74
2023/04/25 08:43:48;;;;;;;3.70;1.45;;;;;;;;;;5013239;28;20021;-74
2023/04/25 08:46:17;;;;;;;2.75;1.77;;;;;;;;;;5011847;28;20022;-74
2023/04/25 08:48:44;;;;;;;2.38;1.58;;;;;;;;;;5013445;28;20037;-75
2023/04/25 08:51:13;;;;;;;2.90;1.90;;;;;;;;;;5011890;28;20022;-74
2023/04/25 08:53:42;;;;;;;4.60;2.00;;;;;;;;;;5011815;28;20080;-74
2023/04/25 08:56:09;;;;;;;4.78;1.98;;;;;;;;;;5012104;28;20029;-74
2023/04/25 08:58:35;;;;;;;3.35;2.03;;;;;;;;;;5015727;28;20441;-74
2023/04/25 09:01:00;;;;;;;7.43;2.03;;;;;;;;;;5016916;28;20366;-74
2023/04/25 09:03:25;;;;;;;5.82;1.55;;;;;;;;;;5015733;28;20033;-74
2023/04/25 09:05:51;;;;;;;9.13;2.13;;;;;;;;;;5016727;28;20084;-74
2023/04/25 09:08:16;;;;;;;8.13;2.25;;;;;;;;;;5016758;28;20034;-74
2023/04/25 09:10:42;;;;;;;3.22;2.13;;;;;;;;;;5016867;28;20024;-73
2023/04/25 09:13:13;;;;;;;7.60;2.27;;;;;;;;;;5015519;28;20029;-74
2023/04/25 09:15:49;;;;;;;4.32;2.22;;;;;;;;;;5016553;28;20267;-74
2023/04/25 09:18:28;;;;;;;3.70;2.00;;;;;;;;;;5016739;28;20508;-74
2023/04/25 09:20:55;;;;;;;8.27;2.30;;;;;;;;;;5016842;28;20109;-74
2023/04/25 09:23:23;;;;;;;6.35;2.28;;;;;;;;;;5016746;28;20040;-73
2023/04/25 09:25:51;;;;;;;5.68;2.20;;;;;;;;;;5015445;28;20378;-75
2023/04/25 09:28:22;;;;;;;4.63;2.30;;;;;;;;;;5015195;28;20022;-74
2023/04/25 09:30:47;;;;;;;5.07;2.33;;;;;;;;;;5016423;28;20030;-74
2023/04/25 09:33:13;;;;;;;3.07;1.90;;;;;;;;;;5016385;28;20393;-75
2023/04/25 09:35:43;;;;;;;8.35;3.08;;;;;;;;;;5016304;28;20620;-74
2023/04/25 09:38:10;;;;;;;4.10;2.67;;;;;;;;;;5016318;28;20026;-75
2023/04/25 09:40:39;;;;;;;3.65;2.10;;;;;;;;;;5014894;28;20468;-73
2023/04/25 09:43:29;;;;;;;3.88;2.10;;;;;;;;;;5015004;28;20041;-74
2023/04/25 09:45:57;;;;;;;4.88;1.88;;;;;;;;;;5015923;28;20037;-74
2023/04/25 09:48:24;;;;;;;5.72;2.00;;;;;;;;;;5016061;28;20076;-74
2023/04/25 09:51:09;;;;;;;3.85;2.40;;;;;;;;;;5016305;28;20469;-74
2023/04/25 09:53:36;;;;;;;5.85;2.83;;;;;;;;;;5016192;28;20401;-74
2023/04/25 09:56:05;;;;;;;6.32;3.03;;;;;;;;;;5015359;28;20030;-74
2023/04/25 09:58:30;;;;;;;7.00;2.60;;;;;;;;;;5015954;28;20493;-74
2023/04/25 10:01:00;;;;;;;6.53;2.47;;;;;;;;;;5016150;28;20033;-74
2023/04/25 10:03:26;;;;;;;4.68;2.75;;;;;;;;;;5014616;28;20022;-75
2023/04/25 10:05:53;;;;;;;8.50;2.55;;;;;;;;;;5015869;28;20029;-74
2023/04/25 10:08:19;;;;;;;4.82;2.83;;;;;;;;;;5014808;28;20030;-75
2023/04/25 10:10:46;;;;;;;4.40;2.92;;;;;;;;;;5016051;28;20018;-74
2023/04/25 10:13:14;;;;;;;4.45;2.90;;;;;;;;;;5015651;28;20160;-74
2023/04/25 10:15:40;;;;;;;5.35;2.40;;;;;;;;;;5015436;28;20033;-74
2023/04/25 10:18:06;;;;;;;6.43;2.55;;;;;;;;;;5015774;28;20017;-75
2023/04/25 10:20:32;;;;;;;4.80;2.45;;;;;;;;;;5015484;28;20029;-75
2023/04/25 10:23:06;;;;;;;6.45;2.20;;;;;;;;;;5015438;28;20405;-75
2023/04/25 10:25:31;;;;;;;5.32;2.40;;;;;;;;;;5015688;28;20022;-75
2023/04/25 10:27:59;;;;;;;4.40;2.33;;;;;;;;;;5015403;28;20041;-74
2023/04/25 10:30:24;;;;;;;4.53;2.10;;;;;;;;;;5014220;28;20057;-74
2023/04/25 10:32:50;;;;;;;4.57;2.40;;;;;;;;;;5014129;28;20417;-75
2023/04/25 10:35:24;;;;;;;7.75;2.20;;;;;;;;;;5013916;28;20029;-74
2023/04/25 10:37:59;;;;;;;4.43;2.00;;;;;;;;;;5015613;28;20392;-74
2023/04/25 10:40:25;;;;;;;5.00;2.22;;;;;;;;;;5014085;28;20121;-75
2023/04/25 10:42:53;;;;;;;4.30;2.67;;;;;;;;;;5015257;28;20464;-75
2023/04/25 10:45:18;;;;;;;2.67;2.05;;;;;;;;;;5014920;28;20049;-74
2023/04/25 10:47:47;;;;;;;4.88;2.25;;;;;;;;;;5013861;28;20061;-74
2023/04/25 10:50:16;;;;;;;4.80;2.40;;;;;;;;;;5015036;28;20020;-75
2023/04/25 10:52:41;;;;;;;5.47;2.58;;;;;;;;;;5015540;28;20385;-74
2023/04/25 10:55:07;;;;;;;3.80;2.33;;;;;;;;;;5014996;28;20026;-74
2023/04/25 10:57:36;;;;;;;5.70;2.50;;;;;;;;;;5014718;28;20021;-74
2023/04/25 11:00:16;;;;;;;3.63;2.30;;;;;;;;;;5013477;28;20029;-74
2023/04/25 11:02:42;;;;;;;8.90;2.78;;;;;;;;;;5014598;28;20030;-75
2023/04/25 11:05:08;;;;;;;5.07;2.30;;;;;;;;;;5015299;28;20183;-74
2023/04/25 11:07:51;;;;;;;4.32;2.55;;;;;;;;;;5014998;28;20033;-74
2023/04/25 11:10:17;;;;;;;4.90;2.50;;;;;;;;;;5014641;28;20026;-75
2023/04/25 11:12:43;;;;;;;5.13;2.85;;;;;;;;;;5014551;28;20029;-75
2023/04/25 11:15:08;;;;;;;4.35;2.63;;;;;;;;;;5014117;28;20033;-75
2023/04/25 11:17:34;;;;;;;8.48;3.70;;;;;;;;;;5013830;28;20033;-74
2023/04/25 11:20:00;;;;;;;6.25;3.17;;;;;;;;;;5014518;28;20469;-75
2023/04/25 11:22:27;;;;;;;5.55;3.10;;;;;;;;;;5014566;28;20096;-75
2023/04/25 11:24:52;;;;;;;6.00;2.65;;;;;;;;;;5013071;28;20056;-75
2023/04/25 11:27:18;;;;;;;8.20;3.35;;;;;;;;;;5014510;28;20026;-73
2023/04/25 11:29:43;;;;;;;6.82;2.85;;;;;;;;;;5013088;28;20018;-73
2023/04/25 11:32:08;;;;;;;3.90;2.15;;;;;;;;;;5013017;28;20029;-74
2023/04/25 11:34:34;;;;;;;4.70;2.20;;;;;;;;;;5013305;28;20033;-75
2023/04/25 11:37:00;;;;;;;4.68;2.20;;;;;;;;;;5014629;28;20022;-73
2023/04/25 11:39:26;;;;;;;4.18;2.17;;;;;;;;;;5012896;28;20033;-74
2023/04/25 11:41:53;;;;;;;4.18;2.00;;;;;;;;;;5014092;28;20080;-74
2023/04/25 11:44:19;;;;;;;3.70;1.42;;;;;;;;;;5013977;28;20078;-74
2023/04/25 11:46:45;;;;;;;3.70;1.80;;;;;;;;;;5012929;28;20022;-74
2023/04/25 11:49:11;;;;;;;5.38;1.77;;;;;;;;;;5012796;28;20033;-75
2023/04/25 11:51:43;;;;;;;6.40;1.63;;;;;;;;;;5014105;28;20022;-74
2023/04/25 11:54:10;;;;;;;3.28;1.70;;;;;;;;;;5013908;28;20115;-74
2023/04/25 11:56:35;;;;;;;4.43;1.40;;;;;;;;;;5013950;28;20076;-75
2023/04/25 11:59:03;;;;;;;2.92;1.23;;;;;;;;;;5012572;28;20021;-75
2023/04/25 12:01:33;;;;;;;3.95;1.10;;;;;;;;;;5013655;28;20029;-75
2023/04/25 12:04:16;;;;;;;1.50;0.85;;;;;;;;;;5013118;28;20037;-75
2023/04/25 12:06:43;;;;;;;2.83;1.20;;;;;;;;;;5013993;28;20036;-75
2023/04/25 12:09:10;;;;;;;4.85;1.10;;;;;;;;;;5013588;28;20036;-75
2023/04/25 12:11:53;;;;;;;2.25;1.20;;;;;;;;;;5012319;28;20029;-75
2023/04/25 12:14:23;;;;;;;4.20;1.50;;;;;;;;;;5013581;28;20042;-75
2023/04/25 12:16:49;;;;;;;5.18;1.60;;;;;;;;;;5013517;28;20025;-74
2023/04/25 12:19:16;;;;;;;3.95;1.52;;;;;;;;;;5013516;28;20372;-75
2023/04/25 12:21:42;;;;;;;3.72;1.63;;;;;;;;;;5013443;28;20026;-74
2023/04/25 12:24:13;;;;;;;2.47;1.42;;;;;;;;;;5012274;28;20404;-74
2023/04/25 12:26:59;;;;;;;4.38;1.73;;;;;;;;;;5013344;28;20029;-74
2023/04/25 12:29:27;;;;;;;4.55;1.52;;;;;;;;;;5012282;28;20105;-74
2023/04/25 12:31:54;;;;;;;13.45;2.20;;;;;;;;;;5012727;28;20022;-74
2023/04/25 12:34:20;;;;;;;7.55;2.10;;;;;;;;;;5013334;28;20018;-74
2023/04/25 12:36:46;;;;;;;7.97;1.90;;;;;;;;;;5012331;28;20054;-74
2023/04/25 12:39:21;;;;;;;9.23;2.50;;;;;;;;;;5013269;28;20029;-74
2023/04/25 12:41:52;;;;;;;10.10;2.00;;;;;;;;;;5013418;28;20386;-74
2023/04/25 12:44:17;;;;;;;6.50;1.85;;;;;;;;;;5014164;28;20101;-75
2023/04/25 12:46:42;;;;;;;8.40;2.00;;;;;;;;;;5013158;28;20473;-75
2023/04/25 12:49:08;;;;;;;9.82;1.80;;;;;;;;;;5013344;28;20045;-75
2023/04/25 12:51:36;;;;;;;5.70;1.98;;;;;;;;;;5013047;28;20076;-75
2023/04/25 12:54:03;;;;;;;10.40;2.25;;;;;;;;;;5013154;28;20025;-75
2023/04/25 12:56:29;;;;;;;7.38;2.15;;;;;;;;;;5012952;28;20034;-74
2023/04/25 12:58:54;;;;;;;4.32;1.67;;;;;;;;;;5011799;28;20034;-75
2023/04/25 13:01:20;;;;;;;8.73;2.20;;;;;;;;;;5013125;28;20125;-75
2023/04/25 13:03:46;;;;;;;5.43;1.77;;;;;;;;;;5012055;28;20022;-75
2023/04/25 13:06:12;;;;;;;5.68;2.33;;;;;;;;;;5013116;28;20454;-74
2023/04/25 13:08:38;;;;;;;6.55;2.00;;;;;;;;;;5013439;28;20493;-74
2023/04/25 13:11:04;;;;;;;5.68;2.13;;;;;;;;;;5011726;28;20049;-74
2023/04/25 13:13:31;;;;;;;10.13;2.30;;;;;;;;;;5013355;28;20034;-74
2023/04/25 13:15:56;;;;;;;8.25;2.42;;;;;;;;;;5012865;28;20037;-74
2023/04/25 13:18:26;;;;;;;8.15;2.22;;;;;;;;;;5013295;28;20351;-75
2023/04/25 13:20:51;;;;;;;8.55;2.20;;;;;;;;;;5012870;28;20064;-74
2023/04/25 13:23:16;;;;;;;7.40;2.53;;;;;;;;;;5011691;28;20062;-75
2023/04/25 13:25:42;;;;;;;7.30;2.40;;;;;;;;;;5011488;28;20037;-74
2023/04/25 13:28:07;;;;;;;8.75;2.53;;;;;;;;;;5013036;28;20271;-74
2023/04/25 13:30:32;;;;;;;10.23;2.30;;;;;;;;;;5012825;28;20080;-74
2023/04/25 13:33:02;;;;;;;8.55;2.38;;;;;;;;;;5012727;28;20325;-74
2023/04/25 13:35:28;;;;;;;6.78;2.50;;;;;;;;;;5011558;28;20033;-74
2023/04/25 13:37:53;;;;;;;14.10;2.97;;;;;;;;;;5012921;28;20034;-74
2023/04/25 13:40:18;;;;;;;13.40;2.88;;;;;;;;;;5012460;28;20371;-74
2023/04/25 13:42:45;;;;;;;10.60;1.90;;;;;;;;;;5014083;28;20029;-74
2023/04/25 13:45:10;;;;;;;7.78;2.47;;;;;;;;;;5015220;28;20263;-74
2023/04/25 13:47:36;;;;;;;10.48;2.58;;;;;;;;;;5015578;28;20076;-74
2023/04/25 13:50:02;;;;;;;7.30;2.20;;;;;;;;;;5016998;28;20029;-73
2023/04/25 13:52:28;;;;;;;10.35;2.58;;;;;;;;;;5017515;28;20101;-74
2023/04/25 13:54:53;;;;;;;8.25;2.30;;;;;;;;;;5017830;28;20058;-74
2023/04/25 13:57:19;;;;;;;9.90;2.15;;;;;;;;;;5017196;28;20029;-74
2023/04/25 13:59:46;;;;;;;10.35;2.13;;;;;;;;;;5017112;28;20025;-75
2023/04/25 14:02:11;;;;;;;13.60;2.47;;;;;;;;;;5015357;28;20409;-75
2023/04/25 14:04:37;;;;;;;6.75;2.42;;;;;;;;;;5016720;28;20018;-74
2023/04/25 14:07:03;;;;;;;7.95;2.30;;;;;;;;;;5016701;28;20030;-74
2023/04/25 14:09:28;;;;;;;12.52;2.65;;;;;;;;;;5016207;28;20025;-75
2023/04/25 14:11:54;;;;;;;12.30;2.33;;;;;;;;;;5015495;28;20132;-74
2023/04/25 14:14:21;;;;;;;6.97;2.20;;;;;;;;;;5016081;28;20040;-75
2023/04/25 14:16:51;;;;;;;9.45;2.58;;;;;;;;;;5016604;28;20030;-75
2023/04/25 14:19:17;;;;;;;14.15;2.22;;;;;;;;;;5014995;28;20386;-74
2023/04/25 14:21:43;;;;;;;5.28;1.88;;;;;;;;;;5016298;28;20072;-76
2023/04/25 14:24:09;;;;;;;9.85;2.05;;;;;;;;;;5016007;28;20072;-73
2023/04/25 14:26:35;;;;;;;9.18;2.55;;;;;;;;;;5014222;28;20076;-75
2023/04/25 14:29:01;;;;;;;12.30;2.58;;;;;;;;;;5014817;28;20092;-75
2023/04/25 14:31:26;;;;;;;13.02;2.40;;;;;;;;;;5015476;28;20477;-74
2023/04/25 14:33:51;;;;;;;15.77;2.63;;;;;;;;;;5015869;28;20025;-74
2023/04/25 14:36:16;;;;;;;8.83;2.20;;;;;;;;;;5015418;28;20026;-75
2023/04/25 14:38:42;;;;;;;5.90;2.30;;;;;;;;;;5015798;28;20263;-74